createdAt,value
2023-02-14T00:00:43.782Z,101767.19
2023-02-14T00:03:16.232Z,101765.25
2023-02-14T00:05:48.164Z,101788.38
2023-02-14T00:08:20.100Z,101781.25
2023-02-14T00:10:52.100Z,101774.63
2023-02-14T00:13:25.735Z,101729.53
2023-02-14T00:15:57.857Z,101764.88
2023-02-14T00:18:48.491Z,101743.97
2023-02-14T00:21:20.483Z,101772.03
2023-02-14T00:23:52.589Z,101772.75
2023-02-14T00:26:24.532Z,101767.50
2023-02-14T00:28:56.558Z,101764.34
2023-02-14T00:31:28.698Z,101778.63
2023-02-14T00:34:00.700Z,101771.22
2023-02-14T00:36:32.795Z,101770.63
2023-02-14T00:39:06.850Z,101786.59
2023-02-14T00:41:39.379Z,101788.38
2023-02-14T00:44:12.562Z,101781.47
2023-02-14T00:46:44.574Z,101781.66
2023-02-14T00:49:16.642Z,101742.59
2023-02-14T00:51:48.570Z,101735.28
2023-02-14T00:54:20.471Z,101760.25
2023-02-14T00:56:52.450Z,101790.91
2023-02-14T00:59:24.470Z,101769.94
2023-02-14T01:01:56.434Z,101787.63
2023-02-14T01:04:28.330Z,101755.53
2023-02-14T01:07:00.296Z,101743.59
2023-02-14T01:09:32.188Z,101772.47
2023-02-14T01:12:04.331Z,101798.00
2023-02-14T01:14:36.343Z,101799.03
2023-02-14T01:17:08.309Z,101790.25
2023-02-14T01:19:42.758Z,101761.41
2023-02-14T01:22:14.773Z,101762.34
2023-02-14T01:24:46.730Z,101764.94
2023-02-14T01:27:18.855Z,101781.31
2023-02-14T01:29:50.879Z,101768.56
2023-02-14T01:32:22.987Z,101783.84
2023-02-14T01:34:55.108Z,101791.50
2023-02-14T01:37:27.382Z,101778.88
2023-02-14T01:39:59.510Z,101779.69
2023-02-14T01:42:33.699Z,101794.84
2023-02-14T01:45:15.044Z,101792.28
2023-02-14T01:47:52.104Z,101780.50
2023-02-14T01:50:32.614Z,101771.97
2023-02-14T01:53:08.569Z,101759.28
2023-02-14T01:55:44.759Z,101804.91
2023-02-14T01:58:25.395Z,101790.59
2023-02-14T02:00:58.298Z,101780.75
2023-02-14T02:03:38.869Z,101782.41
2023-02-14T02:06:22.447Z,101787.41
2023-02-14T02:09:31.473Z,101796.81
2023-02-14T02:12:03.948Z,101798.31
2023-02-14T02:14:36.296Z,101785.66
2023-02-14T02:17:42.174Z,101790.78
2023-02-14T02:20:35.301Z,101790.88
2023-02-14T02:23:48.753Z,101791.81
2023-02-14T02:26:23.581Z,101805.50
2023-02-14T02:29:10.798Z,101807.97
2023-02-14T02:31:51.695Z,101806.38
2023-02-14T02:34:26.627Z,101798.84
2023-02-14T02:36:58.421Z,101794.59
2023-02-14T02:39:45.413Z,101805.72
2023-02-14T02:42:30.194Z,101813.50
2023-02-14T02:45:10.097Z,101812.78
2023-02-14T02:47:53.215Z,101821.97
2023-02-14T02:51:12.945Z,101820.19
2023-02-14T02:53:54.294Z,101827.97
2023-02-14T02:56:45.728Z,101802.75
2023-02-14T02:59:38.088Z,101821.88
2023-02-14T03:02:13.114Z,101784.78
2023-02-14T03:04:56.218Z,101804.09
2023-02-14T03:07:37.373Z,101825.38
2023-02-14T03:10:15.234Z,101832.13
2023-02-14T03:12:54.711Z,101822.34
2023-02-14T03:15:47.898Z,101820.66
2023-02-14T03:18:44.770Z,101822.13
2023-02-14T03:21:19.683Z,101829.09
2023-02-14T03:23:51.521Z,101827.47
2023-02-14T03:26:38.261Z,101828.16
2023-02-14T03:29:46.730Z,101823.81
2023-02-14T03:32:40.610Z,101817.09
2023-02-14T03:35:31.421Z,101803.81
2023-02-14T03:38:15.896Z,101806.13
2023-02-14T03:41:04.430Z,101806.31
2023-02-14T03:43:42.844Z,101802.06
2023-02-14T03:46:38.268Z,101835.44
2023-02-14T03:49:14.866Z,101795.38
2023-02-14T03:51:51.105Z,101814.97
2023-02-14T03:54:26.334Z,101827.63
2023-02-14T03:57:28.158Z,101778.31
2023-02-14T04:00:00.285Z,101827.81
2023-02-14T04:02:42.082Z,101808.22
2023-02-14T04:05:19.821Z,101815.84
2023-02-14T04:07:57.119Z,101836.34
2023-02-14T04:10:29.085Z,101820.19
2023-02-14T04:13:01.364Z,101799.56
2023-02-14T04:15:33.304Z,101816.94
2023-02-14T04:18:24.236Z,101816.81
2023-02-14T04:20:56.101Z,101835.53
2023-02-14T04:23:28.557Z,101828.88
2023-02-14T04:26:00.566Z,101836.47
2023-02-14T04:28:33.228Z,101805.72
2023-02-14T04:31:07.115Z,101838.06
2023-02-14T04:33:39.778Z,101851.00
2023-02-14T04:36:12.006Z,101860.25
2023-02-14T04:38:43.968Z,101829.78
2023-02-14T04:41:15.901Z,101831.53
2023-02-14T04:43:47.866Z,101842.63
2023-02-14T04:46:19.743Z,101841.97
2023-02-14T04:48:51.602Z,101852.03
2023-02-14T04:51:23.602Z,101836.03
2023-02-14T04:53:55.595Z,101849.59
2023-02-14T04:56:27.586Z,101796.16
2023-02-14T04:58:59.586Z,101854.78
2023-02-14T05:01:31.685Z,101860.59
2023-02-14T05:04:03.774Z,101816.50
2023-02-14T05:06:35.929Z,101850.59
2023-02-14T05:09:07.962Z,101882.66
2023-02-14T05:11:39.884Z,101847.31
2023-02-14T05:14:12.148Z,101883.69
2023-02-14T05:16:44.209Z,101863.25
2023-02-14T05:19:16.402Z,101884.66
2023-02-14T05:21:48.416Z,101884.47
2023-02-14T05:24:20.417Z,101868.38
2023-02-14T05:26:52.663Z,101820.94
2023-02-14T05:29:25.003Z,101838.88
2023-02-14T05:31:57.139Z,101884.53
2023-02-14T05:34:29.292Z,101887.88
2023-02-14T05:37:03.472Z,101898.06
2023-02-14T05:39:35.410Z,101869.28
2023-02-14T05:44:39.341Z,101877.56
2023-02-14T05:47:13.089Z,101875.22
2023-02-14T05:49:45.279Z,101890.50
2023-02-14T05:52:17.174Z,101861.88
2023-02-14T05:54:49.173Z,101897.53
2023-02-14T05:57:21.404Z,101876.28
2023-02-14T05:59:53.635Z,101865.25
2023-02-14T06:02:25.923Z,101844.22
2023-02-14T06:04:57.798Z,101904.41
2023-02-14T06:07:29.761Z,101889.97
2023-02-14T06:10:01.839Z,101894.31
2023-02-14T06:12:33.836Z,101890.88
2023-02-14T06:15:06.207Z,101885.56
2023-02-14T06:17:38.371Z,101913.88
2023-02-14T06:20:11.319Z,101912.09
2023-02-14T06:22:43.195Z,101889.78
2023-02-14T06:25:15.145Z,101897.63
2023-02-14T06:27:49.134Z,101891.66
2023-02-14T06:30:21.570Z,101903.69
2023-02-14T06:32:53.527Z,101921.50
2023-02-14T06:35:25.620Z,101918.13
2023-02-14T06:37:57.631Z,101934.25
2023-02-14T06:40:29.575Z,101918.13
2023-02-14T06:43:02.751Z,101923.44
2023-02-14T06:45:34.767Z,101917.53
2023-02-14T06:48:06.780Z,101925.19
2023-02-14T06:50:41.031Z,101909.81
2023-02-14T06:53:12.990Z,101929.97
2023-02-14T06:55:45.019Z,101936.81
2023-02-14T06:58:17.066Z,101925.00
2023-02-14T07:00:49.034Z,101928.31
2023-02-14T07:03:21.032Z,101875.66
2023-02-14T07:05:53.849Z,101915.63
2023-02-14T07:08:26.371Z,101938.59
2023-02-14T07:10:59.405Z,101914.50
2023-02-14T07:13:31.590Z,101923.19
2023-02-14T07:16:04.753Z,101919.56
2023-02-14T07:18:36.689Z,101940.16
2023-02-14T07:21:08.575Z,101948.03
2023-02-14T07:23:40.656Z,101942.69
2023-02-14T07:26:12.659Z,101931.72
2023-02-14T07:28:45.854Z,101942.81
2023-02-14T07:31:20.209Z,101930.72
2023-02-14T07:33:52.626Z,101948.75
2023-02-14T07:36:24.598Z,101944.50
2023-02-14T07:38:57.784Z,101927.31
2023-02-14T07:41:29.966Z,101949.31
2023-02-14T07:44:01.957Z,101939.00
2023-02-14T07:46:33.968Z,101954.00
2023-02-14T07:49:05.954Z,101961.13
2023-02-14T07:51:37.948Z,101938.25
2023-02-14T07:54:09.924Z,101951.81
2023-02-14T07:56:42.036Z,101958.63
2023-02-14T07:59:14.275Z,101946.84
2023-02-14T08:01:46.371Z,101984.22
2023-02-14T08:04:18.614Z,101964.13
2023-02-14T08:06:50.507Z,101949.66
2023-02-14T08:09:25.412Z,101966.63
2023-02-14T08:12:17.125Z,101969.06
2023-02-14T08:14:49.122Z,101977.75
2023-02-14T08:17:21.068Z,101985.25
2023-02-14T08:19:53.048Z,101989.56
2023-02-14T08:22:25.008Z,101989.59
2023-02-14T08:24:56.956Z,101930.97
2023-02-14T08:27:28.944Z,101977.50
2023-02-14T08:30:00.987Z,101994.53
2023-02-14T08:32:33.091Z,101989.06
2023-02-14T08:35:05.388Z,101980.91
2023-02-14T08:37:37.381Z,101990.25
2023-02-14T08:40:09.818Z,101991.03
2023-02-14T08:42:42.469Z,101982.72
2023-02-14T08:45:14.749Z,101993.53
2023-02-14T08:47:46.623Z,101998.09
2023-02-14T08:50:19.236Z,101995.13
2023-02-14T08:52:51.107Z,102008.06
2023-02-14T08:55:23.195Z,101997.44
2023-02-14T08:57:57.387Z,101972.94
2023-02-14T09:00:30.096Z,101971.28
2023-02-14T09:03:02.309Z,102007.13
2023-02-14T09:05:34.895Z,101995.50
2023-02-14T09:08:07.984Z,101988.44
2023-02-14T09:10:39.941Z,102008.97
2023-02-14T09:13:12.291Z,101999.56
2023-02-14T09:15:44.261Z,102011.38
2023-02-14T09:18:16.771Z,102001.97
2023-02-14T09:20:48.852Z,102013.34
2023-02-14T09:23:20.856Z,102011.50
2023-02-14T09:25:59.733Z,101983.31
2023-02-14T09:28:32.234Z,102002.66
2023-02-14T09:31:18.954Z,102006.03
2023-02-14T09:34:11.362Z,102006.03
2023-02-14T09:36:43.484Z,102001.00
2023-02-14T09:39:16.120Z,101993.22
2023-02-14T09:42:06.389Z,101997.31
2023-02-14T09:44:58.382Z,101988.13
2023-02-14T09:47:52.400Z,102000.50
2023-02-14T09:50:56.640Z,102003.09
2023-02-14T09:53:37.499Z,101994.03
2023-02-14T09:56:18.007Z,102018.88
2023-02-14T09:59:05.666Z,102009.25
2023-02-14T10:01:50.203Z,101974.53
2023-02-14T10:04:48.461Z,102000.97
2023-02-14T10:07:40.489Z,102006.97
2023-02-14T10:10:21.561Z,102007.19
2023-02-14T10:13:01.738Z,101993.00
2023-02-14T10:15:43.725Z,101985.88
2023-02-14T10:18:44.873Z,102005.56
2023-02-14T10:21:57.219Z,102003.56
2023-02-14T10:24:37.204Z,102013.44
2023-02-14T10:27:17.333Z,102015.75
2023-02-14T10:29:49.384Z,101991.19
2023-02-14T10:32:42.312Z,101980.13
2023-02-14T10:35:26.412Z,102011.81
2023-02-14T10:38:04.360Z,102008.47
2023-02-14T10:40:56.527Z,102005.84
2023-02-14T10:43:34.609Z,102018.75
2023-02-14T10:46:27.754Z,102013.72
2023-02-14T10:49:29.222Z,102001.31
2023-02-14T10:52:32.120Z,101991.06
2023-02-14T10:55:44.926Z,101993.91
2023-02-14T10:58:20.633Z,101981.75
2023-02-14T11:01:00.030Z,102006.16
2023-02-14T11:03:35.493Z,101996.88
2023-02-14T11:06:09.924Z,101984.69
2023-02-14T11:08:42.213Z,101995.63
2023-02-14T11:11:27.679Z,102008.03
2023-02-14T11:13:59.712Z,101986.81
2023-02-14T11:16:35.088Z,102004.94
2023-02-14T11:19:16.299Z,102005.97
2023-02-14T11:21:51.226Z,102005.66
2023-02-14T11:24:31.689Z,101993.94
2023-02-14T11:27:05.782Z,102018.22
2023-02-14T11:29:49.350Z,102003.22
2023-02-14T11:32:30.028Z,101993.19
2023-02-14T11:35:21.385Z,101993.91
2023-02-14T11:37:55.798Z,101974.22
2023-02-14T11:40:34.461Z,102000.56
2023-02-14T11:43:15.351Z,102004.91
2023-02-14T11:45:49.567Z,101999.59
2023-02-14T11:48:37.839Z,101995.00
2023-02-14T11:51:14.286Z,101984.78
2023-02-14T11:53:52.500Z,101977.06
2023-02-14T11:56:24.887Z,101977.09
2023-02-14T11:58:58.440Z,101988.16
2023-02-14T12:01:36.352Z,101979.91
2023-02-14T12:04:18.243Z,101981.75
2023-02-14T12:06:50.590Z,101971.38
2023-02-14T12:09:22.427Z,101982.53
2023-02-14T12:11:58.911Z,101969.28
2023-02-14T12:14:34.054Z,101975.22
2023-02-14T12:17:12.150Z,101981.84
2023-02-14T12:19:52.095Z,101970.22
2023-02-14T12:22:34.033Z,101969.25
2023-02-14T12:25:17.664Z,101972.06
2023-02-14T12:27:56.102Z,101971.03
2023-02-14T12:30:32.446Z,101917.38
2023-02-14T12:33:19.557Z,101965.91
2023-02-14T12:36:18.945Z,101969.28
2023-02-14T12:39:00.129Z,101966.16
2023-02-14T12:41:41.098Z,101968.66
2023-02-14T12:44:41.181Z,101961.00
2023-02-14T12:47:28.298Z,101973.03
2023-02-14T12:50:27.962Z,101970.13
2023-02-14T12:53:18.873Z,101971.16
2023-02-14T12:56:14.144Z,101973.66
2023-02-14T12:59:01.965Z,101961.78
2023-02-14T13:02:04.869Z,101969.16
2023-02-14T13:04:59.068Z,101950.66
2023-02-14T13:07:40.113Z,101971.06
2023-02-14T13:10:19.226Z,101942.31
2023-02-14T13:12:59.545Z,101949.00
2023-02-14T13:15:53.266Z,101932.84
2023-02-14T13:18:35.941Z,101958.56
2023-02-14T13:21:12.404Z,101960.22
2023-02-14T13:23:48.056Z,101949.09
2023-02-14T13:26:34.883Z,101944.22
2023-02-14T13:29:13.887Z,101964.97
2023-02-14T13:31:46.647Z,101967.56
2023-02-14T13:34:41.097Z,101968.38
2023-02-14T13:37:23.144Z,101964.78
2023-02-14T13:40:02.073Z,101967.44
2023-02-14T13:42:50.131Z,101983.00
2023-02-14T13:45:40.282Z,101971.94
2023-02-14T13:48:21.873Z,101973.41
2023-02-14T13:51:01.639Z,101974.28
2023-02-14T13:53:48.711Z,101955.59
2023-02-14T13:56:21.354Z,101973.22
2023-02-14T13:59:04.902Z,101969.09
2023-02-14T14:01:42.624Z,101974.50
2023-02-14T14:04:43.990Z,101966.59
2023-02-14T14:07:34.106Z,101966.91
2023-02-14T14:10:06.854Z,101947.94
2023-02-14T14:12:40.096Z,101961.84
2023-02-14T14:15:17.077Z,101939.16
2023-02-14T14:18:13.687Z,101945.13
2023-02-14T14:20:48.420Z,101973.19
2023-02-14T14:23:32.953Z,101953.75
2023-02-14T14:26:40.553Z,101971.75
2023-02-14T14:29:49.845Z,101965.06
2023-02-14T14:32:35.686Z,101968.13
2023-02-14T14:35:19.845Z,101970.91
2023-02-14T14:37:57.375Z,101972.53
2023-02-14T14:40:32.418Z,101989.91
2023-02-14T14:43:13.155Z,101977.75
2023-02-14T14:45:51.830Z,101959.28
2023-02-14T14:48:45.958Z,101974.28
2023-02-14T14:51:29.812Z,101985.28
2023-02-14T14:54:06.462Z,101969.16
2023-02-14T14:56:51.845Z,101965.09
2023-02-14T14:59:23.693Z,101982.00
2023-02-14T15:01:55.823Z,101977.00
2023-02-14T15:04:31.788Z,101930.19
2023-02-14T15:07:28.124Z,101974.63
2023-02-14T15:10:01.155Z,101979.63
2023-02-14T15:12:52.142Z,101977.78
2023-02-14T15:15:24.272Z,101982.88
2023-02-14T15:17:56.470Z,101968.41
2023-02-14T15:20:28.584Z,101925.00
2023-02-14T15:23:01.639Z,101960.75
2023-02-14T15:25:37.060Z,101974.16
2023-02-14T15:28:17.534Z,101968.34
2023-02-14T15:30:57.105Z,101989.69
2023-02-14T15:33:31.417Z,101989.63
2023-02-14T15:36:07.006Z,101961.53
2023-02-14T15:38:42.264Z,101945.56
2023-02-14T15:41:16.127Z,101987.31
2023-02-14T15:43:54.075Z,101997.53
2023-02-14T15:46:39.352Z,101977.06
2023-02-14T15:49:16.651Z,101987.06
2023-02-14T15:51:50.770Z,101980.44
2023-02-14T15:54:58.308Z,101995.97
2023-02-14T15:57:30.766Z,101996.59
2023-02-14T16:00:11.559Z,101972.06
2023-02-14T16:02:43.807Z,101994.91
2023-02-14T16:05:22.216Z,101972.25
2023-02-14T16:08:00.112Z,102004.50
2023-02-14T16:10:34.213Z,102001.00
2023-02-14T16:13:16.459Z,102003.56
2023-02-14T16:16:01.465Z,102008.94
2023-02-14T16:18:41.425Z,102014.03
2023-02-14T16:21:30.781Z,102006.97
2023-02-14T16:24:11.019Z,102014.78
2023-02-14T16:26:45.066Z,102012.19
2023-02-14T16:29:21.207Z,101993.66
2023-02-14T16:32:14.588Z,102016.81
2023-02-14T16:34:48.502Z,102024.31
2023-02-14T16:37:24.049Z,102004.75
2023-02-14T16:39:59.818Z,102015.09
2023-02-14T16:42:33.012Z,102025.38
2023-02-14T16:45:05.536Z,102021.81
2023-02-14T16:47:37.442Z,102004.13
2023-02-14T16:50:10.008Z,102007.31
2023-02-14T16:52:44.514Z,101919.06
2023-02-14T16:55:20.246Z,102016.66
2023-02-14T16:57:53.485Z,102004.69
2023-02-14T17:00:27.677Z,102004.69
2023-02-14T17:03:11.763Z,102010.88
2023-02-14T17:05:44.027Z,102012.63
2023-02-14T17:08:16.327Z,102006.53
2023-02-14T17:10:49.097Z,102027.19
2023-02-14T17:13:24.522Z,102017.69
2023-02-14T17:15:57.310Z,102031.41
2023-02-14T17:18:32.533Z,101967.59
2023-02-14T17:21:05.442Z,102008.38
2023-02-14T17:23:37.396Z,102029.56
2023-02-14T17:26:11.530Z,102033.03
2023-02-14T17:28:43.560Z,102011.03
2023-02-14T17:31:15.956Z,102021.19
2023-02-14T17:33:48.850Z,102022.00
2023-02-14T17:36:20.836Z,102030.63
2023-02-14T17:38:54.908Z,102027.38
2023-02-14T17:41:27.061Z,102006.06
2023-02-14T17:44:00.541Z,102023.84
2023-02-14T17:46:32.775Z,102039.31
2023-02-14T17:49:04.716Z,102039.31
2023-02-14T17:51:36.575Z,102028.94
2023-02-14T17:54:08.500Z,102033.34
2023-02-14T17:56:40.707Z,102008.66
2023-02-14T17:59:12.672Z,102036.59
2023-02-14T18:01:44.736Z,101975.59
2023-02-14T18:04:16.633Z,102010.38
2023-02-14T18:06:48.630Z,102020.53
2023-02-14T18:09:20.481Z,101994.88
2023-02-14T18:11:52.430Z,101988.41
2023-02-14T18:14:24.829Z,102024.84
2023-02-14T18:16:56.687Z,102016.31
2023-02-14T18:19:29.341Z,101999.47
2023-02-14T18:22:01.225Z,102029.13
2023-02-14T18:24:33.233Z,102015.69
2023-02-14T18:27:06.432Z,101953.72
2023-02-14T18:29:39.592Z,102024.28
2023-02-14T18:32:11.804Z,102028.47
2023-02-14T18:34:43.809Z,102021.81
2023-02-14T18:37:15.768Z,102002.22
2023-02-14T18:39:47.754Z,102015.03
2023-02-14T18:42:19.701Z,102009.13
2023-02-14T18:44:51.639Z,102027.00
2023-02-14T18:47:23.597Z,101995.50
2023-02-14T18:49:55.588Z,101931.91
2023-02-14T18:52:27.544Z,102025.41
2023-02-14T18:54:59.777Z,102020.28
2023-02-14T18:57:34.493Z,102019.38
2023-02-14T19:00:12.258Z,102030.59
2023-02-14T19:02:44.220Z,101999.97
2023-02-14T19:05:16.226Z,102017.88
2023-02-14T19:07:48.227Z,102018.72
2023-02-14T19:10:20.405Z,102015.34
2023-02-14T19:12:53.497Z,102027.28
2023-02-14T19:15:25.476Z,102004.28
2023-02-14T19:17:57.476Z,102025.72
2023-02-14T19:20:29.497Z,101945.78
2023-02-14T19:23:01.432Z,102027.31
2023-02-14T19:25:34.847Z,101994.19
2023-02-14T19:28:10.015Z,102018.84
2023-02-14T19:30:41.998Z,102006.13
2023-02-14T19:33:13.957Z,102028.28
2023-02-14T19:35:45.973Z,102022.25
2023-02-14T19:38:17.892Z,102018.19
2023-02-14T19:40:49.996Z,102013.06
2023-02-14T19:43:21.924Z,102030.97
2023-02-14T19:45:53.775Z,102019.91
2023-02-14T19:48:25.826Z,102020.78
2023-02-14T19:51:00.894Z,102054.81
2023-02-14T19:53:35.121Z,102051.28
2023-02-14T19:56:07.012Z,102045.44
2023-02-14T19:58:39.266Z,102043.75
2023-02-14T20:01:42.308Z,102021.63
2023-02-14T20:04:18.024Z,102050.53
2023-02-14T20:06:50.885Z,102015.66
2023-02-14T20:09:23.744Z,102046.13
2023-02-14T20:11:57.332Z,102052.97
2023-02-14T20:14:50.267Z,102052.06
2023-02-14T20:17:23.077Z,102030.75
2023-02-14T20:19:56.278Z,102050.38
2023-02-14T20:22:28.457Z,102034.91
2023-02-14T20:25:00.461Z,102027.19
2023-02-14T20:27:32.396Z,102027.16
2023-02-14T20:30:06.713Z,102033.00
2023-02-14T20:32:38.705Z,102026.19
2023-02-14T20:35:10.577Z,102026.19
2023-02-14T20:37:42.603Z,102038.84
2023-02-14T20:40:14.725Z,102020.06
2023-02-14T20:42:49.639Z,102004.84
2023-02-14T20:45:21.616Z,102007.31
2023-02-14T20:47:53.793Z,102025.25
2023-02-14T20:50:25.782Z,102036.06
2023-02-14T20:52:57.942Z,102030.13
2023-02-14T20:55:31.442Z,102037.75
2023-02-14T20:58:04.175Z,102039.53
2023-02-14T21:00:36.166Z,102032.78
2023-02-14T21:03:08.153Z,102030.16
2023-02-14T21:05:40.908Z,102043.84
2023-02-14T21:08:12.856Z,102007.25
2023-02-14T21:10:44.820Z,102046.31
2023-02-14T21:13:16.682Z,102016.56
2023-02-14T21:15:48.711Z,102035.47
2023-02-14T21:18:20.727Z,102042.09
2023-02-14T21:20:54.914Z,102049.78
2023-02-14T21:23:26.855Z,101996.34
2023-02-14T21:25:58.885Z,101992.09
2023-02-14T21:28:30.990Z,102043.91
2023-02-14T21:31:08.352Z,102048.84
2023-02-14T21:33:40.498Z,102059.09
2023-02-14T21:36:15.184Z,102063.44
2023-02-14T21:38:47.327Z,102038.81
2023-02-14T21:41:21.873Z,102055.81
2023-02-14T21:43:58.005Z,102054.13
2023-02-14T21:46:37.164Z,102016.78
2023-02-14T21:49:27.689Z,102038.84
2023-02-14T21:51:59.788Z,101992.88
2023-02-14T21:54:31.648Z,102042.13
2023-02-14T21:57:03.645Z,102055.75
2023-02-14T21:59:35.555Z,102040.63
2023-02-14T22:02:07.830Z,102054.22
2023-02-14T22:04:40.519Z,102041.44
2023-02-14T22:07:12.702Z,102045.75
2023-02-14T22:09:44.588Z,102035.47
2023-02-14T22:12:16.580Z,102040.50
2023-02-14T22:14:48.450Z,102060.88
2023-02-14T22:17:20.374Z,102036.25
2023-02-14T22:19:52.296Z,101999.66
2023-02-14T22:22:24.350Z,102048.09
2023-02-14T22:24:56.360Z,102005.50
2023-02-14T22:27:28.356Z,102052.28
2023-02-14T22:30:00.711Z,102004.59
2023-02-14T22:32:32.699Z,102028.38
2023-02-14T22:35:04.921Z,102038.63
2023-02-14T22:37:36.988Z,102048.03
2023-02-14T22:40:10.185Z,102047.22
2023-02-14T22:42:42.156Z,102032.81
2023-02-14T22:45:14.168Z,101996.97
2023-02-14T22:47:46.039Z,102023.22
2023-02-14T22:50:18.264Z,102037.69
2023-02-14T22:52:50.260Z,102036.84
2023-02-14T22:55:22.434Z,102052.25
2023-02-14T22:57:55.105Z,102046.09
2023-02-14T23:00:27.176Z,102046.25
2023-02-14T23:02:59.184Z,102026.72
2023-02-14T23:05:31.224Z,102018.16
2023-02-14T23:08:03.291Z,102023.19
2023-02-14T23:10:35.231Z,102016.41
2023-02-14T23:13:25.812Z,102018.00
2023-02-14T23:16:16.616Z,102030.88
2023-02-14T23:19:06.906Z,102035.09
2023-02-14T23:21:57.369Z,102028.28
2023-02-14T23:24:29.310Z,102038.56
2023-02-14T23:27:01.956Z,102020.63
2023-02-14T23:29:34.508Z,101979.75
2023-02-14T23:32:07.781Z,102036.81
2023-02-14T23:34:41.778Z,102025.91
2023-02-14T23:37:14.807Z,102037.69
2023-02-14T23:39:46.832Z,102032.56
2023-02-14T23:42:19.114Z,102038.47
2023-02-14T23:44:51.111Z,102032.72
2023-02-14T23:47:23.106Z,102031.81
2023-02-14T23:49:55.264Z,102034.09
2023-02-14T23:52:27.242Z,102032.50
2023-02-14T23:54:59.212Z,102028.34
2023-02-14T23:57:32.000Z,102015.50
